Time;durP1;ratioP1;P1;durP2;ratioP2;P2;SDS_P1;SDS_P2;PMS_P1;PMS_P2;Temp;Humidity;BMP_temperature;BMP_pressure;BME280_temperature;BME280_humidity;BME280_pressure;Samples;Min_cycle;Max_cycle;Signal;HPM_P1;HPM_P2
2023/11/13 00:00:28;;;;;;;2.37;2.28;;;;;;;6.39;62.56;99624.91;4416065;32;33859;-88
2023/11/13 00:02:57;;;;;;;5.10;3.17;;;;;;;6.35;62.55;99629.38;4399224;32;34477;-89
2023/11/13 00:05:25;;;;;;;6.40;5.90;;;;;;;6.36;63.08;99620.63;4404380;32;33563;-89
2023/11/13 00:07:55;;;;;;;3.58;3.33;;;;;;;6.54;62.28;99620.94;4406558;32;32478;-88
2023/11/13 00:10:23;;;;;;;7.75;3.30;;;;;;;6.85;60.68;99621.75;4415983;32;33913;-89
2023/11/13 00:12:51;;;;;;;3.40;3.20;;;;;;;6.36;62.09;99631.09;4417081;32;33796;-89
2023/11/13 00:15:19;;;;;;;3.12;2.85;;;;;;;6.26;62.72;99640.13;4403875;32;32783;-89
2023/11/13 00:17:48;;;;;;;4.47;3.30;;;;;;;6.25;62.43;99638.41;4391934;32;32444;-89
2023/11/13 00:20:16;;;;;;;3.15;2.97;;;;;;;6.30;62.58;99647.00;4402963;32;32884;-89
2023/11/13 00:22:43;;;;;;;1.42;1.37;;;;;;;6.25;62.60;99638.41;4411865;32;33921;-89
2023/11/13 00:25:12;;;;;;;4.55;4.15;;;;;;;6.15;62.82;99644.81;4431350;32;33242;-89
2023/11/13 00:27:39;;;;;;;3.78;3.55;;;;;;;6.20;62.75;99640.31;4411918;32;32093;-89
2023/11/13 00:30:10;;;;;;;3.28;3.08;;;;;;;6.31;62.32;99651.31;4418535;32;32953;-88
2023/11/13 00:32:38;;;;;;;4.05;3.70;;;;;;;6.29;62.08;99637.41;4412029;32;32943;-89
2023/11/13 00:35:06;;;;;;;4.65;3.40;;;;;;;6.43;60.84;99646.66;4423934;32;31876;-89
2023/11/13 00:37:34;;;;;;;9.10;3.50;;;;;;;6.14;61.95;99650.97;4416335;32;32392;-89
2023/11/13 00:40:04;;;;;;;11.57;3.10;;;;;;;6.00;62.61;99650.50;4419297;32;33065;-88
2023/11/13 00:42:33;;;;;;;3.60;3.40;;;;;;;6.07;62.29;99642.41;4421128;32;34058;-88
2023/11/13 00:45:01;;;;;;;2.08;1.90;;;;;;;6.04;61.89;99636.41;4412457;32;34261;-88
2023/11/13 00:47:30;;;;;;;1.48;1.42;;;;;;;6.20;62.24;99623.72;4428111;32;32169;-88
2023/11/13 00:49:58;;;;;;;7.28;2.92;;;;;;;6.00;62.20;99632.16;4398280;32;33954;-88
2023/11/13 00:52:25;;;;;;;2.87;2.67;;;;;;;6.04;62.64;99639.03;4411804;32;32914;-88
2023/11/13 00:54:56;;;;;;;2.67;2.50;;;;;;;6.15;62.23;99627.31;4424748;32;33143;-88
2023/11/13 00:57:24;;;;;;;3.37;3.17;;;;;;;6.15;62.10;99623.84;4404581;32;32340;-88
2023/11/13 00:59:53;;;;;;;1.65;1.45;;;;;;;6.11;62.31;99622.22;4422499;32;33112;-88
2023/11/13 01:02:23;;;;;;;2.05;1.95;;;;;;;6.03;62.68;99611.97;4404098;32;33035;-88
2023/11/13 01:04:51;;;;;;;4.95;4.55;;;;;;;6.05;62.39;99611.91;4401020;32;34082;-88
2023/11/13 01:07:19;;;;;;;2.25;2.15;;;;;;;6.17;61.97;99603.66;4405087;32;33455;-88
2023/11/13 01:09:47;;;;;;;3.90;3.58;;;;;;;6.11;61.81;99606.47;4423593;32;32674;-88
2023/11/13 01:12:18;;;;;;;0.90;0.90;;;;;;;5.86;62.93;99601.91;4401216;32;33790;-88
2023/11/13 01:14:46;;;;;;;2.93;2.73;;;;;;;6.08;61.64;99609.22;4399050;32;223652;-89
2023/11/13 01:17:14;;;;;;;2.37;2.28;;;;;;;5.90;62.51;99603.53;4429954;32;32757;-89
2023/11/13 01:19:43;;;;;;;3.60;3.30;;;;;;;6.05;61.58;99610.13;4419158;32;33014;-89
2023/11/13 01:22:10;;;;;;;1.23;1.23;;;;;;;5.82;62.87;99613.34;4424803;32;32768;-88
2023/11/13 01:24:38;;;;;;;4.50;3.33;;;;;;;5.79;63.04;99618.72;4411982;32;33071;-88
2023/11/13 01:27:07;;;;;;;1.73;1.62;;;;;;;5.79;62.74;99620.44;4411777;32;33093;-88
2023/11/13 01:29:34;;;;;;;1.55;1.45;;;;;;;5.88;62.36;99614.94;4406301;32;33542;-87
2023/11/13 01:32:02;;;;;;;3.80;3.58;;;;;;;5.88;62.25;99621.03;4398183;32;32795;-87
2023/11/13 01:34:30;;;;;;;1.17;1.10;;;;;;;5.97;61.96;99633.06;4399553;32;32730;-87
2023/11/13 01:36:59;;;;;;;1.27;1.17;;;;;;;5.92;61.92;99639.34;4417322;32;32736;-87
2023/11/13 01:39:26;;;;;;;6.82;3.85;;;;;;;6.17;60.87;99640.38;4423633;32;32435;-86
2023/11/13 01:41:55;;;;;;;3.95;2.70;;;;;;;5.96;60.99;99652.31;4424081;32;33109;-86
2023/11/13 01:44:22;;;;;;;5.03;4.62;;;;;;;5.87;61.08;99653.41;4412056;32;33637;-88
2023/11/13 01:46:51;;;;;;;4.62;4.10;;;;;;;5.87;61.37;99658.63;4430776;32;33265;-88
2023/11/13 01:49:20;;;;;;;13.82;4.07;;;;;;;5.70;61.84;99666.09;4424382;32;32524;-88
2023/11/13 01:51:49;;;;;;;5.60;3.70;;;;;;;5.57;62.56;99664.69;4411561;32;33793;-87
2023/11/13 01:54:19;;;;;;;3.30;2.70;;;;;;;5.70;61.64;99676.59;4429175;32;33149;-88
2023/11/13 01:56:48;;;;;;;2.55;2.20;;;;;;;5.67;62.52;99681.87;4412076;32;32219;-86
2023/11/13 01:59:18;;;;;;;4.90;2.92;;;;;;;5.73;62.30;99678.25;4429867;32;34067;-86
2023/11/13 02:01:47;;;;;;;2.37;2.28;;;;;;;5.64;62.78;99674.09;4430313;32;32999;-86
2023/11/13 02:04:16;;;;;;;1.98;1.87;;;;;;;5.60;62.97;99670.72;4411000;32;32890;-90
2023/11/13 02:06:45;;;;;;;1.50;1.45;;;;;;;5.59;63.19;99663.72;4400340;32;32830;-90
2023/11/13 02:09:19;;;;;;;6.05;2.97;;;;;;;5.74;62.35;99662.47;4400366;32;32653;-89
2023/11/13 02:11:47;;;;;;;6.03;4.05;;;;;;;5.82;62.67;99668.38;4416848;32;33270;-89
2023/11/13 02:14:15;;;;;;;4.65;2.47;;;;;;;5.79;62.33;99659.72;4424828;32;33031;-89
2023/11/13 02:16:43;;;;;;;1.30;1.20;;;;;;;5.75;62.82;99668.59;4424681;32;32719;-89
2023/11/13 02:19:18;;;;;;;1.15;1.15;;;;;;;5.81;62.29;99661.44;4416068;32;32633;-89
2023/11/13 02:21:46;;;;;;;1.33;1.20;;;;;;;5.87;62.20;99661.25;4416987;32;33043;-88
2023/11/13 02:24:15;;;;;;;1.17;1.17;;;;;;;5.82;62.23;99655.28;4412308;32;33124;-89
2023/11/13 02:26:45;;;;;;;1.12;1.12;;;;;;;5.83;62.16;99650.91;4399061;32;32657;-89
2023/11/13 02:29:14;;;;;;;1.62;1.05;;;;;;;5.81;62.48;99653.56;4403353;32;32826;-88
2023/11/13 02:31:52;;;;;;;1.35;1.35;;;;;;;5.81;62.36;99658.81;4420487;32;33045;-88
2023/11/13 02:34:22;;;;;;;2.03;1.92;;;;;;;6.10;61.11;99654.56;4423235;32;33621;-88
2023/11/13 02:36:52;;;;;;;0.57;0.57;;;;;;;6.23;60.22;99655.94;4415571;32;32323;-88
2023/11/13 02:39:21;;;;;;;1.95;1.85;;;;;;;5.74;61.67;99662.47;4425977;32;33457;-88
2023/11/13 02:41:51;;;;;;;2.28;2.17;;;;;;;5.78;62.04;99671.13;4413983;32;33941;-88
2023/11/13 02:44:19;;;;;;;3.15;1.98;;;;;;;5.88;61.92;99662.12;4414323;32;33151;-88
2023/11/13 02:46:47;;;;;;;1.85;1.75;;;;;;;5.84;61.54;99658.75;4412206;32;33010;-89
2023/11/13 02:52:10;;;;;;;2.90;2.70;;;;;;;5.62;62.93;99662.81;4417675;32;33640;-90
2023/11/13 02:54:40;;;;;;;2.17;1.98;;;;;;;5.71;62.89;99659.97;4403912;32;33993;-88
2023/11/13 02:57:08;;;;;;;1.50;1.40;;;;;;;5.74;62.78;99661.62;4395320;32;32478;-88
2023/11/13 02:59:35;;;;;;;3.70;2.85;;;;;;;5.64;62.99;99659.22;4419489;32;32693;-87
2023/11/13 03:02:04;;;;;;;2.05;1.85;;;;;;;5.81;62.79;99673.69;4397316;32;34058;-88
2023/11/13 03:04:32;;;;;;;3.00;1.85;;;;;;;5.67;63.47;99674.03;4427275;32;34590;-88
2023/11/13 03:07:00;;;;;;;1.80;1.70;;;;;;;5.81;63.04;99663.19;4420448;32;32218;-88
2023/11/13 03:09:28;;;;;;;1.10;1.10;;;;;;;5.69;63.37;99666.97;4399026;32;32853;-88
2023/11/13 03:11:56;;;;;;;2.10;1.20;;;;;;;5.84;62.72;99657.84;4404237;32;33915;-86
2023/11/13 03:14:24;;;;;;;0.50;0.50;;;;;;;5.63;63.04;99644.44;4414515;32;33466;-86
2023/11/13 03:16:52;;;;;;;1.30;1.20;;;;;;;5.64;63.48;99655.75;4424152;32;32891;-87
2023/11/13 03:19:21;;;;;;;1.45;1.35;;;;;;;5.57;63.80;99655.06;4419294;32;33610;-88
2023/11/13 03:21:49;;;;;;;1.87;1.77;;;;;;;5.65;63.28;99644.41;4411414;32;34017;-88
2023/11/13 03:24:17;;;;;;;2.22;1.15;;;;;;;5.59;63.57;99657.66;4408166;32;33381;-88
2023/11/13 03:26:45;;;;;;;0.85;0.73;;;;;;;5.70;63.33;99650.37;4404408;32;32280;-87
2023/11/13 03:29:13;;;;;;;0.20;0.20;;;;;;;5.60;63.90;99646.25;4412710;32;32953;-88
2023/11/13 03:31:41;;;;;;;2.55;2.33;;;;;;;5.64;63.43;99632.19;4424880;32;34327;-87
2023/11/13 03:34:09;;;;;;;1.77;1.67;;;;;;;5.71;63.60;99649.47;4414615;32;32688;-88
2023/11/13 03:36:37;;;;;;;1.25;1.25;;;;;;;5.62;64.10;99642.72;4399315;32;32842;-87
2023/11/13 03:39:07;;;;;;;2.22;2.12;;;;;;;5.87;62.96;99635.06;4411081;32;32697;-85
2023/11/13 03:41:35;;;;;;;1.27;1.17;;;;;;;5.93;62.83;99636.69;4412520;32;33178;-87
2023/11/13 03:44:03;;;;;;;1.20;1.20;;;;;;;5.90;63.20;99642.00;4411617;32;33025;-86
2023/11/13 03:46:32;;;;;;;1.70;1.52;;;;;;;5.98;62.46;99644.41;4424044;32;32220;-86
2023/11/13 03:49:00;;;;;;;1.58;1.48;;;;;;;5.85;63.34;99644.72;4424504;32;32773;-86
2023/11/13 03:51:28;;;;;;;2.80;1.77;;;;;;;5.95;63.02;99639.28;4425197;32;34693;-89
2023/11/13 03:54:05;;;;;;;2.75;2.53;;;;;;;6.08;62.87;99640.66;4401659;32;33028;-90
2023/11/13 03:56:33;;;;;;;4.62;2.17;;;;;;;6.07;62.68;99633.69;4419558;32;32267;-90
2023/11/13 03:59:04;;;;;;;1.58;1.48;;;;;;;5.90;63.33;99632.38;4405062;32;32631;-89
2023/11/13 04:01:31;;;;;;;1.45;1.37;;;;;;;5.88;63.67;99634.16;4419779;32;33044;-89
2023/11/13 04:04:00;;;;;;;1.77;1.70;;;;;;;5.97;63.62;99638.31;4424914;32;32535;-90
2023/11/13 04:06:49;;;;;;;3.10;2.80;;;;;;;6.06;62.86;99637.22;4400295;32;33104;-90
2023/11/13 04:09:28;;;;;;;1.05;1.05;;;;;;;6.01;62.99;99636.47;4425450;32;33047;-90
2023/11/13 04:11:58;;;;;;;1.13;1.07;;;;;;;6.06;62.79;99637.22;4400216;32;33162;-89
2023/11/13 04:14:26;;;;;;;3.72;1.95;;;;;;;5.99;63.60;99640.91;4406090;32;32796;-90
2023/11/13 04:17:24;;;;;;;;;;;;;;;6.25;61.78;99637.53;4377682;32;32181;-89
2023/11/13 04:19:53;;;;;;;4.40;2.03;;;;;;;6.01;63.41;99650.44;4382071;32;32877;-90
2023/11/13 04:22:21;;;;;;;1.17;1.05;;;;;;;6.18;63.10;99651.75;4383577;32;33031;-89
2023/11/13 04:24:50;;;;;;;1.08;1.08;;;;;;;6.29;62.62;99650.53;4380529;32;33302;-89
2023/11/13 04:27:19;;;;;;;2.05;1.90;;;;;;;6.12;63.56;99658.00;4375422;32;33600;-89
2023/11/13 04:29:47;;;;;;;1.05;1.05;;;;;;;6.18;63.27;99657.84;4386047;32;32691;-90
2023/11/13 04:32:15;;;;;;;1.00;1.00;;;;;;;6.12;63.64;99651.03;4384573;32;34066;-90
2023/11/13 04:35:03;;;;;;;1.65;1.55;;;;;;;6.22;63.55;99651.63;4378845;32;33124;-90
2023/11/13 04:37:31;;;;;;;0.55;0.55;;;;;;;6.16;63.65;99649.16;4384294;32;32075;-90
2023/11/13 04:40:26;;;;;;;0.50;0.50;;;;;;;6.15;64.05;99657.91;4381193;32;34046;-90
2023/11/13 04:42:54;;;;;;;1.45;1.35;;;;;;;6.30;64.31;99656.63;4384502;32;32681;-90
2023/11/13 04:45:49;;;;;;;0.05;0.05;;;;;;;6.41;63.79;99662.44;4389005;32;34672;-90
2023/11/13 04:48:38;;;;;;;0.90;0.90;;;;;;;6.54;63.47;99655.06;4405393;32;33292;-90
2023/11/13 04:51:26;;;;;;;1.02;0.40;;;;;;;6.51;63.93;99655.16;4403265;32;33053;-91
2023/11/13 04:53:55;;;;;;;0.60;0.60;;;;;;;6.44;63.98;99656.22;4405510;32;33035;-91
2023/11/13 04:56:56;;;;;;;2.60;1.05;;;;;;;6.60;63.70;99665.37;4426793;32;34297;-91
2023/11/13 04:59:44;;;;;;;1.45;1.08;;;;;;;6.59;63.60;99653.16;4384039;32;33167;-89
2023/11/13 05:02:13;;;;;;;0.98;0.98;;;;;;;6.31;64.64;99653.09;4393779;32;34245;-89
2023/11/13 05:04:45;;;;;;;0.62;0.62;;;;;;;6.41;64.87;99644.09;4406419;32;33204;-89
2023/11/13 05:07:13;;;;;;;0.93;0.93;;;;;;;6.54;64.27;99634.06;4393524;32;33752;-89
2023/11/13 05:09:41;;;;;;;0.80;0.80;;;;;;;6.67;63.68;99631.03;4397462;32;32170;-89
2023/11/13 05:12:15;;;;;;;0.13;0.13;;;;;;;6.59;64.36;99637.41;4399029;32;32430;-88
2023/11/13 05:14:42;;;;;;;0.85;0.85;;;;;;;6.72;64.14;99651.88;4405758;32;33662;-88
2023/11/13 05:17:11;;;;;;;0.93;0.93;;;;;;;6.70;64.25;99651.09;4385788;32;33120;-88
2023/11/13 05:19:40;;;;;;;0.47;0.47;;;;;;;6.89;63.41;99639.12;4404505;32;33938;-88
2023/11/13 05:22:08;;;;;;;0.73;0.73;;;;;;;6.67;63.87;99656.41;4381038;32;32346;-88
2023/11/13 05:24:36;;;;;;;1.40;0.88;;;;;;;6.60;64.10;99660.16;4392831;32;33463;-90
2023/11/13 05:27:05;;;;;;;1.70;1.67;;;;;;;6.78;63.77;99662.19;4380312;32;33005;-90
2023/11/13 05:29:33;;;;;;;3.40;3.10;;;;;;;6.58;63.58;99670.66;4388236;32;32294;-89
2023/11/13 05:32:01;;;;;;;1.00;1.00;;;;;;;6.67;63.73;99662.53;4420409;32;32310;-90
2023/11/13 05:34:30;;;;;;;1.00;1.00;;;;;;;6.53;63.83;99680.44;4437791;32;33159;-89
2023/11/13 05:36:58;;;;;;;0.05;0.05;;;;;;;6.74;63.34;99689.44;4438794;32;33935;-89
2023/11/13 05:39:45;;;;;;;0.80;0.77;;;;;;;6.59;63.70;99697.75;4404181;32;32506;-89
2023/11/13 05:42:14;;;;;;;0.62;0.62;;;;;;;6.83;63.22;99689.16;4406025;32;33343;-89
2023/11/13 05:44:41;;;;;;;0.50;0.50;;;;;;;6.95;62.88;99687.94;4393236;32;33771;-89
2023/11/13 05:47:10;;;;;;;0.82;0.60;;;;;;;6.75;63.85;99700.81;4406085;32;34080;-89
2023/11/13 05:49:37;;;;;;;0.03;0.03;;;;;;;6.71;64.00;99710.53;4405766;32;32719;-89
2023/11/13 05:52:07;;;;;;;1.90;1.40;;;;;;;6.84;63.57;99701.38;4404555;32;32748;-89
2023/11/13 05:54:39;;;;;;;0.90;0.90;;;;;;;6.78;64.02;99691.06;4418239;32;32969;-89
2023/11/13 05:57:07;;;;;;;0.47;0.47;;;;;;;7.03;63.25;99690.34;4401218;32;32670;-89
2023/11/13 05:59:35;;;;;;;0.98;0.73;;;;;;;7.02;62.85;99696.47;4399458;32;32120;-89
2023/11/13 06:02:04;;;;;;;0.70;0.70;;;;;;;6.91;63.76;99708.16;4398812;32;35377;-90
2023/11/13 06:04:36;;;;;;;1.55;0.68;;;;;;;6.85;64.09;99718.84;4380634;32;33302;-91
2023/11/13 06:08:00;;;;;;;0.25;0.25;;;;;;;6.91;64.00;99718.66;4384003;32;35430;-91
2023/11/13 06:10:28;;;;;;;0.75;0.75;;;;;;;7.29;62.97;99723.62;4362874;32;32675;-91
2023/11/13 06:12:57;;;;;;;0.47;0.47;;;;;;;7.28;62.86;99722.78;4378090;32;32733;-90
2023/11/13 06:16:16;;;;;;;0.55;0.55;;;;;;;7.18;63.79;99721.34;4367073;32;34760;-89
2023/11/13 06:18:47;;;;;;;1.75;1.65;;;;;;;7.18;64.08;99721.34;4361832;32;33106;-89
2023/11/13 06:21:14;;;;;;;0.30;0.30;;;;;;;7.27;63.94;99728.94;4360533;32;32334;-88
2023/11/13 06:23:43;;;;;;;3.90;2.15;;;;;;;7.31;63.97;99727.94;4360555;32;33572;-89
2023/11/13 06:26:14;;;;;;;1.17;0.90;;;;;;;7.72;62.62;99717.84;4382790;32;33049;-88
2023/11/13 06:28:42;;;;;;;13.35;3.92;;;;;;;7.73;62.55;99722.19;4419634;32;32462;-86
2023/11/13 06:31:10;;;;;;;0.20;0.20;;;;;;;7.60;63.26;99723.53;4419232;32;32398;-87
2023/11/13 06:33:38;;;;;;;0.22;0.22;;;;;;;7.60;63.66;99723.53;4422420;32;32945;-89
2023/11/13 06:36:09;;;;;;;1.98;1.87;;;;;;;7.66;64.07;99725.94;4402739;32;32879;-85
2023/11/13 06:38:37;;;;;;;1.95;1.85;;;;;;;8.09;62.69;99716.59;4411409;32;33036;-85
2023/11/13 06:41:05;;;;;;;1.08;1.08;;;;;;;8.24;62.27;99710.78;4420318;32;34081;-86
2023/11/13 06:43:33;;;;;;;0.55;0.55;;;;;;;8.00;63.09;99727.44;4421544;32;33517;-86
2023/11/13 06:46:04;;;;;;;1.10;1.10;;;;;;;7.94;63.65;99718.00;4421548;32;33852;-89
2023/11/13 06:48:34;;;;;;;1.40;0.80;;;;;;;7.96;63.85;99721.41;4408107;32;33346;-89
2023/11/13 06:51:02;;;;;;;0.95;0.95;;;;;;;8.07;63.43;99703.53;4399841;32;32060;-89
2023/11/13 06:53:29;;;;;;;1.05;1.05;;;;;;;7.75;63.40;99717.75;4400693;32;32786;-89
2023/11/13 06:55:57;;;;;;;2.05;1.95;;;;;;;7.81;63.53;99720.16;4421560;32;33100;-89
2023/11/13 06:58:25;;;;;;;5.75;2.05;;;;;;;7.85;63.70;99716.53;4396195;32;33076;-88
2023/11/13 07:00:55;;;;;;;1.33;1.23;;;;;;;7.92;63.27;99720.66;4401623;32;32861;-89
2023/11/13 07:03:24;;;;;;;0.32;0.32;;;;;;;8.06;62.99;99727.22;4395882;32;32846;-89
2023/11/13 07:05:53;;;;;;;2.62;2.42;;;;;;;8.19;62.28;99733.78;4407509;32;33072;-87
2023/11/13 07:08:23;;;;;;;1.58;1.50;;;;;;;8.25;62.31;99735.31;4413779;32;34033;-87
2023/11/13 07:10:51;;;;;;;1.55;1.45;;;;;;;8.09;62.81;99746.38;4398313;32;33731;-86
2023/11/13 07:13:19;;;;;;;3.20;1.83;;;;;;;8.02;62.74;99757.16;4419093;32;33407;-87
2023/11/13 07:15:47;;;;;;;2.17;1.98;;;;;;;8.15;62.37;99753.19;4407715;32;33974;-87
2023/11/13 07:18:15;;;;;;;7.93;3.70;;;;;;;8.18;62.60;99761.00;4387997;32;32919;-87
2023/11/13 07:20:46;;;;;;;4.20;3.05;;;;;;;8.46;61.63;99756.53;4420506;32;34020;-86
2023/11/13 07:23:17;;;;;;;6.78;3.80;;;;;;;8.54;61.51;99752.72;4394412;32;33820;-86
2023/11/13 07:25:45;;;;;;;0.65;0.65;;;;;;;8.76;60.73;99750.19;4408037;32;33843;-87
2023/11/13 07:28:17;;;;;;;1.40;1.33;;;;;;;9.11;59.57;99740.94;4407371;32;33677;-87
2023/11/13 07:30:45;;;;;;;4.50;2.45;;;;;;;8.87;59.80;99740.97;4394794;32;32283;-87
2023/11/13 07:33:13;;;;;;;1.33;1.23;;;;;;;8.66;61.10;99744.41;4406609;32;33556;-87
2023/11/13 07:35:43;;;;;;;1.33;1.33;;;;;;;8.84;60.42;99738.47;4430793;32;33147;-87
2023/11/13 07:38:11;;;;;;;0.90;0.70;;;;;;;8.84;60.51;99738.47;4399636;32;33246;-87
2023/11/13 07:40:39;;;;;;;1.30;1.00;;;;;;;9.00;60.06;99733.47;4417172;32;32984;-87
2023/11/13 07:43:08;;;;;;;2.30;1.10;;;;;;;8.95;60.22;99735.41;4399618;32;33122;-88
2023/11/13 07:45:38;;;;;;;0.65;0.65;;;;;;;8.98;60.04;99736.16;4419718;32;33027;-88
2023/11/13 07:48:08;;;;;;;5.30;1.00;;;;;;;9.04;59.83;99744.75;4418523;32;33043;-88
2023/11/13 07:50:37;;;;;;;0.22;0.22;;;;;;;9.25;58.57;99730.72;4392421;32;33324;-86
2023/11/13 07:53:25;;;;;;;1.90;1.10;;;;;;;9.53;56.09;99727.00;4399635;32;33844;-86
2023/11/13 07:55:55;;;;;;;0.47;0.40;;;;;;;9.39;56.66;99731.03;4433653;32;33033;-84
2023/11/13 07:58:31;;;;;;;0.40;0.40;;;;;;;9.46;56.68;99736.94;4407848;32;34244;-87
2023/11/13 08:01:02;;;;;;;0.52;0.52;;;;;;;9.55;56.00;99730.44;4397020;32;32737;-84
2023/11/13 08:03:31;;;;;;;2.70;2.50;;;;;;;9.86;54.87;99733.50;4414231;32;32777;-84
2023/11/13 08:05:59;;;;;;;1.80;1.15;;;;;;;9.70;55.00;99738.56;4422011;32;33794;-84
2023/11/13 08:08:27;;;;;;;0.10;0.10;;;;;;;9.68;55.11;99737.75;4409012;32;33693;-84
2023/11/13 08:10:54;;;;;;;0.62;0.62;;;;;;;9.68;55.24;99729.84;4394968;32;33060;-84
2023/11/13 08:13:24;;;;;;;0.85;0.85;;;;;;;9.66;55.74;99725.59;4420236;32;33168;-84
2023/11/13 08:15:53;;;;;;;2.40;2.20;;;;;;;9.61;56.17;99709.09;4409095;32;33062;-84
2023/11/13 08:18:22;;;;;;;0.32;0.32;;;;;;;9.34;56.92;99717.19;4395751;32;34275;-84
2023/11/13 08:20:50;;;;;;;0.45;0.45;;;;;;;9.59;56.22;99721.47;4421338;32;33195;-84
2023/11/13 08:23:18;;;;;;;1.27;0.90;;;;;;;9.93;53.69;99736.78;4421880;32;35087;-84
2023/11/13 08:25:48;;;;;;;0.65;0.65;;;;;;;9.68;54.69;99742.19;4433646;32;33427;-84
2023/11/13 08:28:16;;;;;;;2.37;1.85;;;;;;;9.70;55.69;99749.13;4433604;32;32875;-84
2023/11/13 08:30:44;;;;;;;1.23;1.12;;;;;;;9.64;56.72;99754.66;4434203;32;33381;-84
2023/11/13 08:33:12;;;;;;;1.85;1.75;;;;;;;9.71;56.54;99752.62;4431737;32;33313;-84
2023/11/13 08:35:41;;;;;;;1.45;1.35;;;;;;;9.90;55.74;99764.13;4399761;32;33124;-84
2023/11/13 08:38:10;;;;;;;0.22;0.22;;;;;;;9.90;55.57;99765.91;4420694;32;34940;-84
2023/11/13 08:40:39;;;;;;;0.90;0.90;;;;;;;10.08;54.91;99751.09;4421589;32;33212;-84
2023/11/13 08:43:10;;;;;;;0.52;0.52;;;;;;;10.09;54.88;99758.06;4421282;32;32816;-84
2023/11/13 08:45:40;;;;;;;0.80;0.50;;;;;;;10.10;54.52;99754.50;4421748;32;34063;-84
2023/11/13 08:48:27;;;;;;;1.98;0.68;;;;;;;10.23;54.50;99761.84;4396338;32;32906;-84
2023/11/13 08:50:59;;;;;;;0.47;0.47;;;;;;;10.57;54.38;99743.69;4396572;32;32203;-84
2023/11/13 08:53:28;;;;;;;2.08;1.60;;;;;;;10.76;52.92;99755.16;4408454;32;33744;-83
2023/11/13 08:55:59;;;;;;;1.87;1.77;;;;;;;10.79;52.81;99756.81;4423616;32;33029;-87
2023/11/13 08:58:28;;;;;;;0.37;0.37;;;;;;;10.47;54.56;99752.03;4415401;32;33585;-87
2023/11/13 09:00:56;;;;;;;1.37;1.33;;;;;;;10.58;54.97;99740.97;4427742;32;33182;-85
2023/11/13 09:03:29;;;;;;;1.55;0.45;;;;;;;10.91;53.90;99746.53;4423960;32;32856;-86
2023/11/13 09:05:58;;;;;;;1.25;1.25;;;;;;;11.29;51.79;99735.94;4429869;32;33153;-86
2023/11/13 09:08:27;;;;;;;3.35;2.17;;;;;;;10.80;52.51;99746.16;4424437;32;33412;-86
2023/11/13 09:10:55;;;;;;;0.22;0.22;;;;;;;11.28;51.75;99743.03;4415066;32;32746;-86
2023/11/13 09:13:24;;;;;;;0.95;0.85;;;;;;;11.56;50.19;99743.50;4411752;32;33060;-87
2023/11/13 09:15:53;;;;;;;0.55;0.55;;;;;;;11.43;50.78;99741.44;4428598;32;33389;-86
2023/11/13 09:18:26;;;;;;;1.37;1.27;;;;;;;11.17;51.73;99729.47;4427840;32;33431;-85
2023/11/13 09:20:55;;;;;;;1.90;1.35;;;;;;;11.12;51.86;99733.28;4401779;32;33192;-86
2023/11/13 09:23:23;;;;;;;2.12;1.83;;;;;;;11.36;51.65;99736.53;4403674;32;33991;-86
2023/11/13 09:25:50;;;;;;;0.40;0.40;;;;;;;11.75;50.89;99729.28;4415615;32;33101;-86
2023/11/13 09:28:18;;;;;;;1.45;1.02;;;;;;;11.43;52.21;99736.16;4409463;32;33256;-86
2023/11/13 09:30:46;;;;;;;2.12;1.65;;;;;;;11.41;52.46;99731.88;4428273;32;33691;-85
2023/11/13 09:33:16;;;;;;;0.82;0.82;;;;;;;12.00;49.98;99736.03;4428650;32;33089;-86
2023/11/13 09:35:46;;;;;;;0.47;0.47;;;;;;;11.43;52.56;99733.50;4428223;32;33681;-87
2023/11/13 09:38:13;;;;;;;8.85;3.87;;;;;;;11.57;51.84;99734.63;4421890;32;33747;-86
2023/11/13 09:40:41;;;;;;;2.47;2.25;;;;;;;12.39;48.39;99722.56;4427124;32;33365;-85
2023/11/13 09:43:18;;;;;;;2.40;2.20;;;;;;;12.05;50.02;99728.72;4411694;32;32760;-86
2023/11/13 09:45:51;;;;;;;1.37;1.27;;;;;;;12.27;50.02;99724.03;4427255;32;33732;-86
2023/11/13 09:48:28;;;;;;;6.82;1.98;;;;;;;12.57;48.67;99726.84;4437522;32;34553;-86
2023/11/13 09:51:00;;;;;;;4.28;1.95;;;;;;;12.63;48.69;99724.81;4413490;32;32477;-86
2023/11/13 09:53:28;;;;;;;5.33;1.37;;;;;;;12.59;48.26;99718.84;4420036;32;33999;-86
2023/11/13 09:55:57;;;;;;;1.00;1.00;;;;;;;12.57;49.48;99702.16;4431752;32;33906;-86
2023/11/13 09:58:26;;;;;;;0.93;0.82;;;;;;;12.68;49.67;99704.25;4420378;32;34116;-86
2023/11/13 10:00:54;;;;;;;2.28;1.67;;;;;;;12.65;49.38;99707.06;4407432;32;33511;-86
2023/11/13 10:03:22;;;;;;;1.48;0.75;;;;;;;12.87;48.47;99712.94;4420736;32;34123;-85
2023/11/13 10:05:50;;;;;;;0.52;0.52;;;;;;;12.75;49.11;99713.56;4402145;32;33245;-86
2023/11/13 10:08:20;;;;;;;0.60;0.60;;;;;;;13.10;47.77;99713.44;4396252;32;32772;-86
2023/11/13 10:10:50;;;;;;;0.75;0.75;;;;;;;13.20;46.99;99704.06;4402731;32;32073;-86
2023/11/13 10:13:21;;;;;;;2.85;2.08;;;;;;;13.11;47.37;99712.50;4407669;32;34658;-86
2023/11/13 10:15:52;;;;;;;7.68;2.65;;;;;;;12.88;48.53;99714.62;4408494;32;33247;-86
2023/11/13 10:18:25;;;;;;;0.70;0.47;;;;;;;13.00;46.98;99707.78;4420470;32;33080;-86
2023/11/13 10:20:56;;;;;;;1.95;1.85;;;;;;;12.43;49.08;99710.84;4420784;32;33956;-86
2023/11/13 10:23:32;;;;;;;2.33;1.27;;;;;;;12.63;47.95;99714.22;4419949;32;33532;-86
2023/11/13 10:26:00;;;;;;;1.08;0.95;;;;;;;12.24;49.86;99718.03;4420109;32;33417;-86
2023/11/13 10:28:34;;;;;;;1.60;1.50;;;;;;;12.63;48.95;99703.63;4420617;32;33231;-86
2023/11/13 10:31:12;;;;;;;6.82;2.22;;;;;;;12.78;49.29;99708.12;4420746;32;32424;-86
2023/11/13 10:33:55;;;;;;;1.23;1.00;;;;;;;13.01;48.26;99709.53;4413885;32;34372;-86
2023/11/13 10:36:23;;;;;;;0.43;0.43;;;;;;;12.89;48.85;99705.72;4419178;32;33424;-86
2023/11/13 10:38:52;;;;;;;1.10;0.82;;;;;;;13.05;48.59;99709.28;4443931;32;34180;-86
2023/11/13 10:41:21;;;;;;;3.65;1.75;;;;;;;13.13;48.02;99713.28;4419877;32;32112;-86
2023/11/13 10:43:49;;;;;;;1.02;1.02;;;;;;;13.61;46.95;99717.63;4419676;32;34339;-85
2023/11/13 10:46:28;;;;;;;0.82;0.82;;;;;;;13.71;46.04;99710.00;4407636;32;33842;-86
2023/11/13 10:48:58;;;;;;;0.37;0.37;;;;;;;13.47;46.89;99712.25;4395190;32;34670;-86
2023/11/13 10:51:27;;;;;;;0.80;0.80;;;;;;;13.36;46.71;99702.28;4394323;32;32652;-86
2023/11/13 10:53:56;;;;;;;1.27;1.08;;;;;;;13.12;47.37;99698.31;4419467;32;32580;-86
2023/11/13 10:56:25;;;;;;;0.45;0.45;;;;;;;12.72;48.91;99703.13;4398170;32;33780;-86
2023/11/13 10:58:56;;;;;;;0.98;0.98;;;;;;;13.01;48.24;99699.78;4419341;32;33791;-87
2023/11/13 11:01:28;;;;;;;3.60;1.83;;;;;;;13.12;48.67;99701.81;4421031;32;33113;-86
2023/11/13 11:04:04;;;;;;;2.12;0.77;;;;;;;12.99;48.89;99698.13;4407926;32;34753;-87
2023/11/13 11:06:39;;;;;;;1.08;1.08;;;;;;;12.97;48.74;99695.56;4407068;32;32099;-87
2023/11/13 11:09:12;;;;;;;1.48;1.37;;;;;;;13.31;48.23;99685.75;4407720;32;33274;-87
2023/11/13 11:11:41;;;;;;;1.30;1.23;;;;;;;13.17;48.66;99683.00;4419776;32;32495;-87
2023/11/13 11:14:17;;;;;;;2.08;0.95;;;;;;;12.61;48.93;99676.38;4420260;32;33141;-87
2023/11/13 11:16:57;;;;;;;0.55;0.55;;;;;;;13.21;48.19;99666.00;4419420;32;32920;-87
2023/11/13 11:19:31;;;;;;;1.85;1.08;;;;;;;12.91;48.44;99673.84;4412554;32;34583;-87
2023/11/13 11:22:25;;;;;;;1.12;1.05;;;;;;;12.77;48.88;99669.28;4401849;32;32148;-87
2023/11/13 11:25:04;;;;;;;0.35;0.35;;;;;;;13.13;49.08;99669.06;4420555;32;32735;-87
2023/11/13 11:27:43;;;;;;;0.75;0.70;;;;;;;13.19;48.81;99666.06;4407394;32;33204;-87
2023/11/13 11:30:17;;;;;;;1.60;1.50;;;;;;;13.38;48.17;99665.03;4408924;32;32740;-87
2023/11/13 11:32:53;;;;;;;1.80;0.88;;;;;;;13.11;49.18;99675.41;4418448;32;32178;-87
2023/11/13 11:35:22;;;;;;;0.70;0.70;;;;;;;13.21;48.51;99679.25;4409495;32;33259;-87
2023/11/13 11:38:22;;;;;;;2.15;1.40;;;;;;;12.97;49.26;99679.66;4422284;32;33813;-87
2023/11/13 11:40:50;;;;;;;0.50;0.50;;;;;;;13.26;48.41;99678.06;4412317;32;34546;-87
2023/11/13 11:43:23;;;;;;;0.80;0.80;;;;;;;13.29;48.02;99674.38;4409378;32;33340;-87
2023/11/13 11:45:52;;;;;;;0.77;0.55;;;;;;;13.12;48.32;99663.84;4422669;32;32002;-87
2023/11/13 11:48:22;;;;;;;1.10;0.95;;;;;;;13.00;48.33;99658.28;4421140;32;33082;-87
2023/11/13 11:51:12;;;;;;;2.10;1.23;;;;;;;13.05;48.36;99658.03;4419082;32;33843;-86
2023/11/13 11:54:00;;;;;;;0.60;0.60;;;;;;;13.04;49.77;99651.88;4414538;32;32796;-87
2023/11/13 11:56:27;;;;;;;2.20;0.30;;;;;;;13.43;48.01;99647.06;4413827;32;33344;-87
2023/11/13 11:58:56;;;;;;;1.17;1.10;;;;;;;13.58;48.25;99655.00;4417837;32;33908;-88